createdAt,value
2019-01-04T00:00:10.855Z,1.70
2019-01-04T00:02:39.707Z,1.70
2019-01-04T00:05:08.553Z,1.70
2019-01-04T00:07:37.392Z,1.70
2019-01-04T00:10:06.235Z,1.70
2019-01-04T00:12:35.083Z,1.70
2019-01-04T00:15:03.918Z,1.70
2019-01-04T00:17:32.772Z,1.70
2019-01-04T00:20:01.635Z,1.70
2019-01-04T00:22:31.221Z,1.70
2019-01-04T00:25:00.801Z,1.70
2019-01-04T00:27:29.634Z,1.70
2019-01-04T00:29:59.212Z,1.60
2019-01-04T00:32:28.050Z,1.60
2019-01-04T00:34:56.890Z,1.50
2019-01-04T00:37:25.770Z,1.50
2019-01-04T00:39:54.575Z,1.50
2019-01-04T00:42:23.414Z,1.40
2019-01-04T00:44:52.260Z,1.50
2019-01-04T00:47:22.648Z,1.40
2019-01-04T00:49:51.494Z,1.40
2019-01-04T00:52:20.375Z,1.40
2019-01-04T00:54:50.069Z,1.30
2019-01-04T00:57:28.538Z,1.30
2019-01-04T01:00:04.206Z,1.30
2019-01-04T01:05:36.631Z,1.30
2019-01-04T01:10:56.410Z,1.30
2019-01-04T01:13:31.860Z,1.20
2019-01-04T01:19:01.387Z,1.20
2019-01-04T01:21:37.038Z,1.30
2019-01-04T01:27:02.339Z,1.30
2019-01-04T01:29:41.974Z,1.30
2019-01-04T01:32:28.634Z,1.20
2019-01-04T01:34:59.496Z,1.10
2019-01-04T01:37:35.914Z,1.20
2019-01-04T01:40:19.254Z,1.10
2019-01-04T01:45:35.832Z,0.90
2019-01-04T01:48:04.669Z,0.80
2019-01-04T01:50:39.096Z,0.80
2019-01-04T01:53:07.937Z,0.80
2019-01-04T01:55:36.769Z,0.90
2019-01-04T01:58:05.612Z,0.90
2019-01-04T02:00:34.440Z,0.80
2019-01-04T02:03:03.287Z,0.90
2019-01-04T02:05:32.123Z,0.80
2019-01-04T02:08:01.714Z,0.70
2019-01-04T02:10:31.295Z,0.50
2019-01-04T02:13:00.136Z,0.50
2019-01-04T02:15:28.990Z,0.60
2019-01-04T02:17:57.844Z,0.70
2019-01-04T02:20:26.694Z,0.70
2019-01-04T02:22:56.278Z,0.70
2019-01-04T02:25:25.109Z,0.80
2019-01-04T02:27:53.961Z,0.70
2019-01-04T02:30:23.552Z,0.70
2019-01-04T02:32:52.392Z,0.70
2019-01-04T02:35:21.219Z,0.80
2019-01-04T02:37:50.055Z,0.70
2019-01-04T02:40:18.917Z,0.70
2019-01-04T02:42:47.766Z,0.70
2019-01-04T02:45:16.611Z,0.70
2019-01-04T02:47:46.191Z,0.60
2019-01-04T02:50:15.056Z,0.50
2019-01-04T02:52:43.875Z,0.50
2019-01-04T02:55:12.727Z,0.50
2019-01-04T02:57:41.566Z,0.50
2019-01-04T03:00:11.160Z,0.50
2019-01-04T03:02:39.981Z,0.60
2019-01-04T03:05:08.816Z,0.50
2019-01-04T03:07:37.680Z,0.50
2019-01-04T03:10:06.516Z,0.50
2019-01-04T03:12:35.361Z,0.50
2019-01-04T03:15:04.190Z,0.60
2019-01-04T03:17:33.037Z,0.60
2019-01-04T03:20:01.876Z,0.70
2019-01-04T03:22:30.728Z,0.60
2019-01-04T03:24:59.565Z,0.60
2019-01-04T03:27:29.147Z,0.60
2019-01-04T03:29:57.982Z,0.60
2019-01-04T03:32:26.830Z,0.50
2019-01-04T03:34:56.427Z,0.50
2019-01-04T03:37:25.259Z,0.50
2019-01-04T03:39:54.120Z,0.40
2019-01-04T03:42:22.936Z,0.40
2019-01-04T03:44:52.523Z,0.40
2019-01-04T03:47:21.368Z,0.40
2019-01-04T03:49:50.202Z,0.40
2019-01-04T03:52:19.790Z,0.40
2019-01-04T03:54:48.637Z,0.40
2019-01-04T03:57:17.473Z,0.40
2019-01-04T03:59:46.318Z,0.30
2019-01-04T04:02:15.159Z,0.30
2019-01-04T04:04:43.998Z,0.40
2019-01-04T04:07:12.834Z,0.30
2019-01-04T04:09:42.434Z,0.30
2019-01-04T04:12:12.021Z,0.40
2019-01-04T04:14:40.861Z,0.50
2019-01-04T04:17:10.448Z,0.40
2019-01-04T04:19:39.298Z,0.40
2019-01-04T04:22:08.156Z,0.40
2019-01-04T04:24:37.019Z,0.40
2019-01-04T04:27:06.639Z,0.30
2019-01-04T04:29:35.441Z,0.20
2019-01-04T04:32:04.290Z,0.20
2019-01-04T04:34:33.157Z,0.10
2019-01-04T04:37:01.991Z,0.20
2019-01-04T04:39:31.582Z,0.20
2019-01-04T04:42:00.434Z,0.30
2019-01-04T04:44:29.265Z,0.30
2019-01-04T04:46:58.121Z,0.40
2019-01-04T04:49:26.962Z,0.40
2019-01-04T04:51:56.540Z,0.40
2019-01-04T04:54:25.370Z,0.40
2019-01-04T04:56:54.217Z,0.50
2019-01-04T04:59:23.059Z,0.50
2019-01-04T05:01:51.895Z,0.50
2019-01-04T05:04:20.741Z,0.50
2019-01-04T05:06:49.575Z,0.60
2019-01-04T05:09:18.428Z,0.50
2019-01-04T05:11:47.263Z,0.50
2019-01-04T05:14:16.844Z,0.50
2019-01-04T05:16:45.688Z,0.60
2019-01-04T05:19:14.528Z,0.70
2019-01-04T05:21:43.360Z,0.60
2019-01-04T05:24:12.203Z,0.60
2019-01-04T05:26:41.046Z,0.60
2019-01-04T05:29:09.885Z,0.50
2019-01-04T05:34:08.873Z,0.50
2019-01-04T05:36:37.707Z,0.60
2019-01-04T05:39:06.556Z,0.60
2019-01-04T05:41:35.389Z,0.70
2019-01-04T05:44:04.971Z,0.70
2019-01-04T05:46:33.795Z,0.70
2019-01-04T05:49:02.628Z,0.70
2019-01-04T05:51:31.488Z,0.70
2019-01-04T05:54:00.316Z,0.70
2019-01-04T05:56:29.145Z,0.70
2019-01-04T05:58:58.027Z,0.70
2019-01-04T06:01:26.876Z,0.70
2019-01-04T06:03:55.715Z,0.70
2019-01-04T06:06:25.586Z,0.80
2019-01-04T06:08:54.420Z,0.80
2019-01-04T06:11:23.261Z,0.80
2019-01-04T06:13:52.089Z,0.80
2019-01-04T06:16:21.658Z,0.90
2019-01-04T06:18:50.494Z,0.80
2019-01-04T06:21:19.325Z,0.90
2019-01-04T06:23:48.161Z,0.90
2019-01-04T06:26:17.005Z,0.90
2019-01-04T06:28:45.834Z,0.90
2019-01-04T06:31:15.486Z,0.80
2019-01-04T06:33:45.002Z,0.80
2019-01-04T06:36:13.845Z,0.90
2019-01-04T06:38:42.689Z,0.90
2019-01-04T06:41:11.517Z,0.90
2019-01-04T06:43:41.083Z,0.80
2019-01-04T06:46:10.052Z,0.90
2019-01-04T06:48:38.892Z,0.90
2019-01-04T06:51:07.747Z,0.80
2019-01-04T06:53:36.595Z,1.00
2019-01-04T06:56:05.441Z,0.90
2019-01-04T06:58:34.280Z,0.90
2019-01-04T07:01:03.170Z,0.90
2019-01-04T07:06:02.107Z,0.90
2019-01-04T07:08:33.982Z,1.00
2019-01-04T07:11:02.574Z,1.00
2019-01-04T07:13:31.417Z,0.90
2019-01-04T07:16:00.251Z,0.90
2019-01-04T07:18:29.108Z,0.90
2019-01-04T07:20:57.940Z,0.90
2019-01-04T07:23:27.519Z,0.90
2019-01-04T07:25:56.663Z,0.90
2019-01-04T07:28:26.225Z,0.90
2019-01-04T07:30:55.069Z,1.00
2019-01-04T07:33:23.913Z,0.90
2019-01-04T07:35:52.762Z,1.00
2019-01-04T07:38:21.582Z,1.00
2019-01-04T07:40:50.433Z,1.00
2019-01-04T07:43:19.269Z,1.00
2019-01-04T07:45:48.181Z,1.00
2019-01-04T07:48:16.963Z,1.10
2019-01-04T07:50:46.553Z,1.10
2019-01-04T07:53:15.402Z,1.10
2019-01-04T07:55:44.246Z,1.10
2019-01-04T07:58:13.863Z,1.10
2019-01-04T08:00:42.678Z,1.10
2019-01-04T08:03:11.511Z,1.10
2019-01-04T08:05:40.345Z,1.20
2019-01-04T08:08:09.180Z,1.20
2019-01-04T08:10:38.024Z,1.20
2019-01-04T08:13:06.868Z,1.10
2019-01-04T08:15:35.724Z,1.10
2019-01-04T08:18:04.574Z,1.00
2019-01-04T08:20:34.145Z,1.10
2019-01-04T08:23:02.985Z,1.10
2019-01-04T08:25:32.555Z,1.20
2019-01-04T08:28:02.133Z,1.20
2019-01-04T08:30:30.969Z,1.30
2019-01-04T08:33:00.562Z,1.30
2019-01-04T08:35:29.420Z,1.30
2019-01-04T08:37:58.663Z,1.40
2019-01-04T08:40:27.508Z,1.40
2019-01-04T08:42:56.347Z,1.40
2019-01-04T08:45:25.209Z,1.40
2019-01-04T08:47:54.084Z,1.40
2019-01-04T08:50:23.947Z,1.50
2019-01-04T08:52:52.793Z,1.50
2019-01-04T08:55:21.629Z,1.40
2019-01-04T08:57:50.458Z,1.40
2019-01-04T09:00:19.307Z,1.40
2019-01-04T09:02:48.155Z,1.30
2019-01-04T09:05:16.980Z,1.30
2019-01-04T09:07:45.817Z,1.40
2019-01-04T09:10:14.682Z,1.40
2019-01-04T09:12:44.231Z,1.40
2019-01-04T09:15:13.065Z,1.40
2019-01-04T09:17:41.914Z,1.50
2019-01-04T09:20:10.748Z,1.50
2019-01-04T09:22:39.583Z,1.50
2019-01-04T09:25:08.429Z,1.50
2019-01-04T09:27:37.256Z,1.60
2019-01-04T09:30:06.138Z,1.60
2019-01-04T09:32:34.965Z,1.60
2019-01-04T09:35:04.556Z,1.60
2019-01-04T09:37:34.144Z,1.60
2019-01-04T09:40:02.968Z,1.70
2019-01-04T09:42:31.856Z,1.60
2019-01-04T09:45:01.447Z,1.60
2019-01-04T09:47:30.303Z,1.60
2019-01-04T09:49:59.133Z,1.60
2019-01-04T09:52:28.731Z,1.60
2019-01-04T09:54:58.318Z,1.60
2019-01-04T09:57:27.157Z,1.70
2019-01-04T09:59:56.001Z,1.80
2019-01-04T10:02:25.587Z,1.80
2019-01-04T10:04:54.418Z,1.80
2019-01-04T10:07:24.015Z,1.80
2019-01-04T10:09:52.879Z,1.90
2019-01-04T10:12:21.740Z,2.00
2019-01-04T10:14:50.569Z,2.00
2019-01-04T10:17:19.414Z,1.90
2019-01-04T10:19:48.257Z,1.90
2019-01-04T10:22:17.221Z,1.90
2019-01-04T10:24:46.053Z,1.90
2019-01-04T10:27:15.645Z,1.90
2019-01-04T10:29:44.495Z,1.90
2019-01-04T10:32:13.317Z,2.00
2019-01-04T10:34:42.183Z,2.00
2019-01-04T10:37:11.031Z,2.10
2019-01-04T10:39:39.864Z,2.10
2019-01-04T10:42:08.703Z,2.20
2019-01-04T10:44:37.582Z,2.20
2019-01-04T10:47:06.417Z,2.30
2019-01-04T10:49:35.248Z,2.40
2019-01-04T10:52:04.826Z,2.40
2019-01-04T10:54:33.662Z,2.50
2019-01-04T10:57:02.501Z,2.60
2019-01-04T10:59:31.344Z,2.50
2019-01-04T11:02:00.184Z,2.50
2019-01-04T11:04:29.011Z,2.50
2019-01-04T11:06:57.849Z,2.60
2019-01-04T11:09:26.691Z,2.70
2019-01-04T11:11:55.583Z,2.70
2019-01-04T11:14:25.165Z,2.60
2019-01-04T11:16:54.000Z,2.70
2019-01-04T11:19:22.848Z,2.70
2019-01-04T11:21:51.713Z,2.80
2019-01-04T11:27:06.466Z,3.00
2019-01-04T11:29:38.687Z,3.00
2019-01-04T11:32:07.535Z,3.00
2019-01-04T11:34:45.937Z,3.10
2019-01-04T11:37:24.616Z,3.20
2019-01-04T11:39:59.469Z,3.30
2019-01-04T11:42:29.221Z,3.50
2019-01-04T11:47:40.103Z,3.80
2019-01-04T11:52:57.109Z,3.80
2019-01-04T11:55:25.943Z,4.30
2019-01-04T12:00:24.255Z,4.40
2019-01-04T12:02:54.005Z,4.70
2019-01-04T12:05:22.762Z,4.90
2019-01-04T12:07:52.330Z,4.70
2019-01-04T12:10:21.186Z,4.40
2019-01-04T12:12:50.068Z,4.30
2019-01-04T12:15:18.916Z,4.20
2019-01-04T12:17:47.749Z,4.00
2019-01-04T12:20:16.607Z,4.00
2019-01-04T12:22:45.445Z,4.10
2019-01-04T12:25:14.292Z,4.10
2019-01-04T12:27:43.115Z,4.20
2019-01-04T12:30:11.954Z,4.20
2019-01-04T12:32:40.801Z,4.30
2019-01-04T12:35:09.669Z,4.30
2019-01-04T12:37:38.507Z,4.20
2019-01-04T12:40:07.352Z,4.20
2019-01-04T12:42:36.205Z,4.30
2019-01-04T12:45:05.783Z,4.20
2019-01-04T12:47:34.613Z,4.20
2019-01-04T12:50:04.202Z,4.20
2019-01-04T12:52:33.771Z,4.20
2019-01-04T12:55:02.618Z,4.20
2019-01-04T12:57:32.184Z,4.20
2019-01-04T13:00:01.043Z,4.20
2019-01-04T13:02:29.892Z,4.20
2019-01-04T13:04:59.486Z,4.20
2019-01-04T13:07:28.318Z,4.20
2019-01-04T13:09:57.164Z,4.20
2019-01-04T13:12:26.011Z,4.10
2019-01-04T13:14:54.843Z,4.00
2019-01-04T13:17:24.443Z,4.00
2019-01-04T13:19:53.281Z,4.10
2019-01-04T13:22:22.107Z,4.10
2019-01-04T13:24:50.972Z,4.10
2019-01-04T13:27:19.826Z,4.20
2019-01-04T13:29:49.396Z,4.10
2019-01-04T13:32:18.984Z,4.10
2019-01-04T13:34:47.842Z,4.10
2019-01-04T13:37:17.407Z,4.10
2019-01-04T13:39:46.252Z,4.10
2019-01-04T13:42:15.109Z,4.10
2019-01-04T13:44:44.686Z,4.10
2019-01-04T13:47:13.541Z,4.00
2019-01-04T13:49:42.378Z,4.10
2019-01-04T13:52:11.242Z,4.00
2019-01-04T13:54:40.084Z,4.10
2019-01-04T13:57:08.929Z,4.00
2019-01-04T13:59:37.766Z,4.00
2019-01-04T14:02:06.637Z,4.00
2019-01-04T14:04:36.217Z,4.00
2019-01-04T14:07:05.067Z,4.00
2019-01-04T14:09:33.905Z,4.00
2019-01-04T14:12:02.746Z,4.00
2019-01-04T14:14:31.602Z,4.00
2019-01-04T14:17:00.441Z,4.00
2019-01-04T14:19:29.283Z,3.90
2019-01-04T14:21:58.145Z,3.90
2019-01-04T14:24:26.983Z,3.80
2019-01-04T14:26:55.821Z,3.80
2019-01-04T14:29:24.659Z,3.80
2019-01-04T14:31:53.502Z,3.90
2019-01-04T14:34:22.345Z,3.80
2019-01-04T14:36:51.227Z,3.80
2019-01-04T14:39:20.761Z,3.80
2019-01-04T14:41:49.604Z,3.70
2019-01-04T14:44:18.439Z,3.80
2019-01-04T14:46:47.287Z,3.70
2019-01-04T14:49:16.167Z,3.70
2019-01-04T14:51:44.961Z,3.70
2019-01-04T14:54:13.796Z,3.70
2019-01-04T14:56:42.639Z,3.60
2019-01-04T14:59:11.486Z,3.60
2019-01-04T15:01:40.323Z,3.60
2019-01-04T15:04:09.182Z,3.60
2019-01-04T15:06:38.034Z,3.60
2019-01-04T15:09:06.861Z,3.60
2019-01-04T15:11:35.700Z,3.60
2019-01-04T15:14:04.540Z,3.60
2019-01-04T15:16:34.115Z,3.50
2019-01-04T15:19:02.949Z,3.60
2019-01-04T15:21:31.785Z,3.50
2019-01-04T15:24:00.646Z,3.50
2019-01-04T15:26:29.503Z,3.50
2019-01-04T15:28:59.111Z,3.50
2019-01-04T15:31:28.695Z,3.50
2019-01-04T15:33:58.312Z,3.50
2019-01-04T15:36:27.107Z,3.40
2019-01-04T15:38:56.693Z,3.40
2019-01-04T15:41:25.547Z,3.40
2019-01-04T15:43:54.388Z,3.40
2019-01-04T15:46:23.345Z,3.40
2019-01-04T15:48:52.192Z,3.50
2019-01-04T15:51:21.040Z,3.50
2019-01-04T15:53:49.892Z,3.40
2019-01-04T15:56:18.732Z,3.40
2019-01-04T15:58:47.593Z,3.40
2019-01-04T16:01:16.440Z,3.40
2019-01-04T16:03:45.309Z,3.40
2019-01-04T16:06:14.151Z,3.40
2019-01-04T16:08:42.999Z,3.50
2019-01-04T16:11:12.612Z,3.40
2019-01-04T16:13:41.513Z,3.40
2019-01-04T16:16:10.362Z,3.40
2019-01-04T16:18:39.282Z,3.40
2019-01-04T16:21:08.052Z,3.50
2019-01-04T16:23:37.637Z,3.40
2019-01-04T16:26:06.471Z,3.50
2019-01-04T16:28:35.325Z,3.50
2019-01-04T16:31:04.174Z,3.50
2019-01-04T16:33:33.014Z,3.50
2019-01-04T16:36:01.865Z,3.50
2019-01-04T16:38:30.752Z,3.50
2019-01-04T16:40:59.604Z,3.50
2019-01-04T16:43:28.439Z,3.50
2019-01-04T16:45:57.300Z,3.40
2019-01-04T16:48:26.171Z,3.40
2019-01-04T16:50:55.091Z,3.40
2019-01-04T16:53:24.633Z,3.40
2019-01-04T16:55:53.499Z,3.40
2019-01-04T16:58:22.390Z,3.40
2019-01-04T17:00:51.189Z,3.40
2019-01-04T17:03:20.098Z,3.40
2019-01-04T17:05:52.127Z,3.30
2019-01-04T17:08:20.596Z,3.30
2019-01-04T17:10:49.434Z,3.20
2019-01-04T17:13:18.339Z,3.20
2019-01-04T17:15:47.161Z,3.20
2019-01-04T17:18:15.998Z,3.10
2019-01-04T17:20:51.166Z,3.20
2019-01-04T17:23:20.017Z,3.20
2019-01-04T17:28:18.327Z,3.20
2019-01-04T17:30:47.907Z,3.20
2019-01-04T17:33:16.755Z,3.20
2019-01-04T17:35:45.581Z,3.20
2019-01-04T17:38:14.428Z,3.20
2019-01-04T17:40:43.261Z,3.20
2019-01-04T17:43:12.119Z,3.20
2019-01-04T17:45:40.977Z,3.20
2019-01-04T17:48:10.584Z,3.20
2019-01-04T17:50:39.389Z,3.20
2019-01-04T17:53:08.247Z,3.20
2019-01-04T17:55:37.100Z,3.20
2019-01-04T17:58:05.989Z,3.20
2019-01-04T18:00:34.843Z,3.10
2019-01-04T18:03:03.771Z,3.10
2019-01-04T18:05:32.622Z,3.10
2019-01-04T18:08:01.463Z,3.10
2019-01-04T18:10:30.308Z,3.00
2019-01-04T18:12:59.228Z,3.10
2019-01-04T18:15:28.057Z,3.10
2019-01-04T18:17:58.661Z,3.10
2019-01-04T18:20:27.272Z,3.10
2019-01-04T18:22:56.870Z,3.10
2019-01-04T18:25:25.729Z,3.10
2019-01-04T18:27:54.588Z,3.10
2019-01-04T18:30:23.471Z,3.10
2019-01-04T18:32:52.314Z,3.20
2019-01-04T18:35:21.167Z,3.20
2019-01-04T18:37:50.034Z,3.20
2019-01-04T18:40:18.871Z,3.20
2019-01-04T18:42:47.713Z,3.20
2019-01-04T18:45:16.566Z,3.20
2019-01-04T18:47:45.412Z,3.20
2019-01-04T18:50:14.252Z,3.20
2019-01-04T18:52:43.849Z,3.20
2019-01-04T18:55:12.671Z,3.30
2019-01-04T18:57:41.524Z,3.30
2019-01-04T19:00:10.391Z,3.20
2019-01-04T19:02:39.219Z,3.30
2019-01-04T19:05:08.073Z,3.30
2019-01-04T19:07:40.614Z,3.30
2019-01-04T19:10:09.478Z,3.20
2019-01-04T19:12:39.040Z,3.20
2019-01-04T19:15:07.882Z,3.20
2019-01-04T19:17:37.456Z,3.10
2019-01-04T19:20:06.297Z,3.10
2019-01-04T19:22:35.159Z,3.10
2019-01-04T19:25:04.749Z,3.10
2019-01-04T19:27:33.617Z,3.20
2019-01-04T19:30:02.458Z,3.20
2019-01-04T19:32:31.308Z,3.10
2019-01-04T19:35:00.183Z,3.10
2019-01-04T19:37:29.005Z,3.10
2019-01-04T19:39:57.921Z,3.10
2019-01-04T19:42:26.774Z,3.10
2019-01-04T19:44:55.627Z,3.20
2019-01-04T19:48:43.254Z,3.20
2019-01-04T19:51:12.084Z,3.20
2019-01-04T19:56:10.543Z,3.20
2019-01-04T19:58:39.291Z,3.20
2019-01-04T20:01:08.139Z,3.20
2019-01-04T20:03:37.853Z,3.20
2019-01-04T20:17:18.705Z,3.30
2019-01-04T20:19:48.316Z,3.30
2019-01-04T20:22:20.120Z,3.30
2019-01-04T20:24:49.706Z,3.30
2019-01-04T20:27:19.395Z,3.30
2019-01-04T20:29:48.313Z,3.30
2019-01-04T20:32:22.575Z,3.30
2019-01-04T20:34:51.482Z,3.30
2019-01-04T20:37:20.372Z,3.30
2019-01-04T20:39:49.199Z,3.30
2019-01-04T20:42:20.973Z,3.30
2019-01-04T20:44:50.654Z,3.30
2019-01-04T20:47:22.365Z,3.30
2019-01-04T20:49:56.829Z,3.30
2019-01-04T20:52:27.177Z,3.30
2019-01-04T20:55:02.077Z,3.30
2019-01-04T20:57:37.208Z,3.30
2019-01-04T21:00:06.795Z,3.40
2019-01-04T21:02:41.047Z,3.40
2019-01-04T21:05:09.905Z,3.40
2019-01-04T21:07:39.545Z,3.30
2019-01-04T21:10:13.997Z,3.40
2019-01-04T21:12:44.776Z,3.30
2019-01-04T21:15:13.638Z,3.30
2019-01-04T21:17:45.324Z,3.30
2019-01-04T21:20:15.142Z,3.30
2019-01-04T21:22:44.029Z,3.20
2019-01-04T21:25:15.827Z,3.30
2019-01-04T21:27:48.575Z,3.30
2019-01-04T21:30:22.053Z,3.30
2019-01-04T21:32:54.836Z,3.40
2019-01-04T21:35:23.694Z,3.30
2019-01-04T21:37:52.628Z,3.30
2019-01-04T21:40:22.331Z,3.40
2019-01-04T21:45:23.499Z,3.50
2019-01-04T21:47:54.194Z,3.50
2019-01-04T21:50:23.933Z,3.50
2019-01-04T21:52:58.408Z,3.50
2019-01-04T21:55:32.957Z,3.60
2019-01-04T21:58:07.742Z,3.60
2019-01-04T22:00:38.240Z,3.60
2019-01-04T22:03:09.894Z,3.60
2019-01-04T22:05:40.422Z,3.60
2019-01-04T22:08:09.292Z,3.60
2019-01-04T22:10:43.664Z,3.60
2019-01-04T22:13:16.471Z,3.60
2019-01-04T22:15:46.248Z,3.60
2019-01-04T22:18:20.960Z,3.60
2019-01-04T22:20:56.172Z,3.60
2019-01-04T22:23:27.834Z,3.60
2019-01-04T22:26:02.398Z,3.60
2019-01-04T22:28:36.704Z,3.60
2019-01-04T22:31:07.470Z,3.50
2019-01-04T22:33:40.272Z,3.60
2019-01-04T22:36:11.925Z,3.60
2019-01-04T22:38:41.527Z,3.50
2019-01-04T22:41:15.299Z,3.50
2019-01-04T22:43:45.025Z,3.60
2019-01-04T22:46:14.732Z,3.60
2019-01-04T22:48:45.536Z,3.60
2019-01-04T22:51:17.230Z,3.60
2019-01-04T22:53:49.838Z,3.60
2019-01-04T22:56:24.136Z,3.60
2019-01-04T22:58:53.061Z,3.70
2019-01-04T23:01:24.695Z,3.70
2019-01-04T23:03:53.594Z,3.70
2019-01-04T23:06:23.380Z,3.70
2019-01-04T23:08:52.300Z,3.80
2019-01-04T23:11:25.079Z,3.70
2019-01-04T23:13:53.922Z,3.80
2019-01-04T23:16:28.344Z,3.80
2019-01-04T23:19:02.781Z,3.70
2019-01-04T23:24:31.684Z,3.70
2019-01-04T23:27:06.044Z,3.80
2019-01-04T23:29:37.512Z,3.70
2019-01-04T23:32:06.378Z,3.70
2019-01-04T23:34:40.590Z,3.80
2019-01-04T23:37:14.906Z,3.80
2019-01-04T23:39:49.983Z,3.80
2019-01-04T23:42:20.548Z,3.80
2019-01-04T23:44:54.384Z,3.80
2019-01-04T23:47:29.474Z,3.70
2019-01-04T23:50:03.894Z,3.80
2019-01-04T23:52:34.487Z,3.70
2019-01-04T23:55:08.927Z,3.70
2019-01-04T23:57:42.620Z,3.70
